createdAt,value
2022-10-23T08:03:16.111Z,10.75
2022-10-23T08:05:20.184Z,10.75
2022-10-23T08:07:22.974Z,10.46
2022-10-23T08:09:26.004Z,10.66
2022-10-23T08:11:31.124Z,10.81
2022-10-23T08:13:33.543Z,10.96
2022-10-23T08:15:36.227Z,11.08
2022-10-23T08:17:39.664Z,11.25
2022-10-23T08:19:47.296Z,11.22
2022-10-23T08:21:49.997Z,11.31
2022-10-23T08:23:57.600Z,11.49
2022-10-23T08:26:03.113Z,11.54
2022-10-23T08:28:07.277Z,11.67
2022-10-23T08:30:13.112Z,11.63
2022-10-23T08:32:15.454Z,11.82
2022-10-23T08:34:20.902Z,11.88
2022-10-23T08:36:26.360Z,12.12
2022-10-23T08:38:29.163Z,12.16
2022-10-23T08:40:32.359Z,12.22
2022-10-23T08:42:39.705Z,12.19
2022-10-23T08:44:56.107Z,12.17
2022-10-23T08:46:59.297Z,12.10
2022-10-23T08:49:39.274Z,12.06
2022-10-23T08:51:45.318Z,12.30
2022-10-23T08:53:56.215Z,12.28
2022-10-23T08:56:04.668Z,12.43
2022-10-23T08:58:15.968Z,12.56
2022-10-23T09:00:18.823Z,12.59
2022-10-23T09:02:26.780Z,12.74
2022-10-23T09:04:29.414Z,12.74
2022-10-23T09:06:49.811Z,12.87
2022-10-23T09:09:18.873Z,12.93
2022-10-23T09:11:32.603Z,12.92
2022-10-23T09:13:53.308Z,13.02
2022-10-23T09:16:07.694Z,13.21
2022-10-23T09:18:14.195Z,13.40
2022-10-23T09:20:23.739Z,13.44
2022-10-23T09:22:28.077Z,13.46
2022-10-23T09:24:31.833Z,13.52
2022-10-23T09:26:34.139Z,13.71
2022-10-23T09:28:52.310Z,13.78
2022-10-23T09:31:09.155Z,13.94
2022-10-23T09:33:14.463Z,14.11
2022-10-23T09:35:26.471Z,14.29
2022-10-23T09:37:32.061Z,14.16
2022-10-23T09:39:36.569Z,14.27
2022-10-23T09:41:40.295Z,14.14
2022-10-23T09:43:43.261Z,14.04
2022-10-23T09:45:57.020Z,13.83
2022-10-23T09:48:15.712Z,13.61
2022-10-23T09:50:21.534Z,13.51
2022-10-23T09:52:37.513Z,13.72
2022-10-23T09:54:53.181Z,13.52
2022-10-23T09:56:58.719Z,13.53
2022-10-23T09:59:23.967Z,13.69
2022-10-23T10:01:47.572Z,13.88
2022-10-23T10:03:53.984Z,14.08
2022-10-23T10:06:03.173Z,14.19
2022-10-23T10:08:20.761Z,14.18
2022-10-23T10:10:23.994Z,14.32
2022-10-23T10:12:49.827Z,14.34
2022-10-23T10:15:11.020Z,14.36
2022-10-23T10:17:34.326Z,14.28
2022-10-23T10:19:48.697Z,14.48
2022-10-23T10:22:08.951Z,14.62
2022-10-23T10:24:17.484Z,14.71
2022-10-23T10:26:22.851Z,14.73
2022-10-23T10:28:46.355Z,14.83
2022-10-23T10:31:26.322Z,14.92
2022-10-23T10:33:48.934Z,15.08
2022-10-23T10:36:03.095Z,15.19
2022-10-23T10:38:43.471Z,15.26
2022-10-23T10:40:50.512Z,15.30
2022-10-23T10:43:23.455Z,15.10
2022-10-23T10:45:28.707Z,15.17
2022-10-23T10:47:47.594Z,15.33
2022-10-23T10:50:08.085Z,15.33
2022-10-23T10:52:22.224Z,15.41
2022-10-23T10:54:40.651Z,15.74
2022-10-23T10:56:44.734Z,15.87
2022-10-23T10:58:55.301Z,15.94
2022-10-23T11:01:01.982Z,16.19
2022-10-23T11:03:44.607Z,16.56
2022-10-23T11:05:51.651Z,16.76
2022-10-23T11:08:04.025Z,17.73
2022-10-23T11:10:16.452Z,18.43
2022-10-23T11:12:22.211Z,18.86
2022-10-23T11:14:27.313Z,19.26
2022-10-23T11:16:36.141Z,20.02
2022-10-23T11:18:42.801Z,20.28
2022-10-23T11:20:59.304Z,20.00
2022-10-23T11:23:26.453Z,20.64
2022-10-23T11:25:50.390Z,20.93
2022-10-23T11:28:12.442Z,22.44
2022-10-23T11:30:27.219Z,24.14
2022-10-23T11:32:40.216Z,24.16
2022-10-23T11:34:52.037Z,25.09
2022-10-23T11:36:57.483Z,26.37
2022-10-23T11:39:25.134Z,23.87
2022-10-23T11:41:34.278Z,22.76
2022-10-23T11:44:06.486Z,23.21
2022-10-23T11:46:29.840Z,23.77
2022-10-23T11:48:42.951Z,25.56
2022-10-23T11:50:45.420Z,27.13
2022-10-23T11:53:12.949Z,27.07
2022-10-23T11:55:19.589Z,27.45
2022-10-23T11:57:22.685Z,23.57
2022-10-23T11:59:30.643Z,21.32
2022-10-23T12:01:53.992Z,19.62
2022-10-23T12:04:04.432Z,20.20
2022-10-23T12:06:08.148Z,21.82
2022-10-23T12:08:26.527Z,21.63
2022-10-23T12:10:43.905Z,21.44
2022-10-23T12:12:59.840Z,19.82
2022-10-23T12:15:18.909Z,18.58
2022-10-23T12:17:24.340Z,17.69
2022-10-23T12:19:30.377Z,17.34
2022-10-23T12:21:35.264Z,16.98
2022-10-23T12:24:07.627Z,16.92
2022-10-23T12:26:50.651Z,17.14
2022-10-23T12:29:24.132Z,17.50
2022-10-23T12:31:32.454Z,17.52
2022-10-23T12:33:37.315Z,17.38
2022-10-23T12:36:01.697Z,17.51
2022-10-23T12:38:09.640Z,17.80
2022-10-23T12:40:12.398Z,18.07
2022-10-23T12:42:23.585Z,18.01
2022-10-23T12:44:28.224Z,17.50
2022-10-23T12:46:36.997Z,17.17
2022-10-23T12:48:50.965Z,16.94
2022-10-23T12:50:55.756Z,16.82
2022-10-23T12:53:04.504Z,16.77
2022-10-23T12:55:14.572Z,16.93
2022-10-23T12:57:23.886Z,16.92
2022-10-23T12:59:38.032Z,17.12
2022-10-23T13:01:42.945Z,17.42
2022-10-23T13:03:46.181Z,17.68
2022-10-23T13:05:51.802Z,17.87
2022-10-23T13:07:54.962Z,17.78
2022-10-23T13:09:59.870Z,17.65
2022-10-23T13:12:05.672Z,17.60
2022-10-23T13:14:13.402Z,17.21
2022-10-23T13:16:20.139Z,17.04
2022-10-23T13:18:22.466Z,17.17
2022-10-23T13:20:28.183Z,17.02
2022-10-23T13:22:30.528Z,16.61
2022-10-23T13:24:32.885Z,16.59
2022-10-23T13:26:45.506Z,16.39
2022-10-23T13:28:48.178Z,16.06
2022-10-23T13:31:08.026Z,16.20
2022-10-23T13:33:47.065Z,16.21
2022-10-23T13:36:00.744Z,16.08
2022-10-23T13:38:10.449Z,16.19
2022-10-23T13:40:27.117Z,16.44
2022-10-23T13:42:29.390Z,16.11
2022-10-23T13:44:31.957Z,16.10
2022-10-23T13:46:34.586Z,16.29
2022-10-23T13:48:36.849Z,16.36
2022-10-23T13:50:39.386Z,16.52
2022-10-23T13:52:42.232Z,16.51
2022-10-23T13:54:44.810Z,16.49
2022-10-23T13:56:47.494Z,16.75
2022-10-23T13:58:50.361Z,16.68
2022-10-23T14:00:54.553Z,16.54
2022-10-23T14:02:57.214Z,16.41
2022-10-23T14:08:26.466Z,16.30
2022-10-23T14:10:29.313Z,16.33
2022-10-23T14:12:31.607Z,16.12
2022-10-23T14:14:34.592Z,16.13
2022-10-23T14:16:37.821Z,15.92
2022-10-23T14:18:40.651Z,16.00
2022-10-23T14:20:42.893Z,16.06
2022-10-23T14:22:46.018Z,16.10
2022-10-23T14:24:48.894Z,16.09
2022-10-23T14:26:51.534Z,16.12
2022-10-23T14:28:55.820Z,16.14
2022-10-23T14:30:58.367Z,16.22
2022-10-23T14:33:00.815Z,16.22
2022-10-23T14:35:04.031Z,16.04
2022-10-23T14:37:09.532Z,16.11
2022-10-23T14:39:12.308Z,16.05
2022-10-23T14:41:17.652Z,16.13
2022-10-23T14:43:20.876Z,16.26
2022-10-23T14:45:24.459Z,16.14
2022-10-23T14:54:01.866Z,16.02
2022-10-23T14:56:04.960Z,16.11
2022-10-23T14:58:07.444Z,16.12
2022-10-23T15:00:11.356Z,16.23
2022-10-23T15:02:13.876Z,16.33
2022-10-23T15:04:16.875Z,16.20
2022-10-23T15:06:19.248Z,16.26
2022-10-23T15:08:25.713Z,16.21
2022-10-23T15:10:27.971Z,16.34
2022-10-23T15:12:30.247Z,16.31
2022-10-23T15:14:33.339Z,16.34
2022-10-23T15:16:41.476Z,16.37
2022-10-23T15:18:44.992Z,16.39
2022-10-23T15:20:53.629Z,16.43
2022-10-23T15:22:56.143Z,16.45
2022-10-23T15:24:58.976Z,16.48
2022-10-23T15:27:02.461Z,16.50
2022-10-23T15:29:05.659Z,16.45
2022-10-23T15:31:44.084Z,16.51
2022-10-23T15:33:46.563Z,16.40
2022-10-23T15:35:49.386Z,16.40
2022-10-23T15:37:51.783Z,16.47
2022-10-23T15:39:57.216Z,16.48
2022-10-23T15:42:05.368Z,16.48
2022-10-23T15:44:09.464Z,16.50
2022-10-23T15:46:11.994Z,16.47
2022-10-23T15:48:14.573Z,16.45
2022-10-23T15:50:17.552Z,16.46
2022-10-23T15:52:20.288Z,16.43
2022-10-23T15:54:23.366Z,16.43
2022-10-23T15:56:28.375Z,16.50
2022-10-23T15:58:30.877Z,16.54
2022-10-23T16:00:36.743Z,16.55
2022-10-23T16:02:40.649Z,16.57
2022-10-23T16:04:46.432Z,16.48
2022-10-23T16:06:49.599Z,16.45
2022-10-23T16:09:15.450Z,16.49
2022-10-23T16:11:23.849Z,16.48
2022-10-23T16:13:27.233Z,16.47
2022-10-23T16:15:30.181Z,16.43
2022-10-23T16:17:32.552Z,16.39
2022-10-23T16:19:35.119Z,16.43
2022-10-23T16:21:41.691Z,16.38
2022-10-23T16:23:44.771Z,16.48
2022-10-23T16:25:47.188Z,16.45
2022-10-23T16:27:50.132Z,16.36
2022-10-23T16:29:52.543Z,16.51
2022-10-23T16:31:56.095Z,16.73
2022-10-23T16:34:00.687Z,16.70
2022-10-23T16:36:05.284Z,16.57
2022-10-23T16:38:18.792Z,16.48
2022-10-23T16:40:21.486Z,16.65
2022-10-23T16:42:32.065Z,16.49
2022-10-23T16:44:35.546Z,16.59
2022-10-23T16:46:40.120Z,16.35
2022-10-23T16:48:43.334Z,16.35
2022-10-23T16:50:45.869Z,16.36
2022-10-23T16:52:50.965Z,16.38
2022-10-23T16:54:58.471Z,16.36
2022-10-23T16:57:00.846Z,16.36
2022-10-23T16:59:04.264Z,16.34
2022-10-23T17:01:10.216Z,16.54
2022-10-23T17:03:13.285Z,16.71
2022-10-23T17:05:16.319Z,16.64
2022-10-23T17:07:19.301Z,16.50
2022-10-23T17:09:22.034Z,16.29
2022-10-23T17:11:27.466Z,16.28
2022-10-23T17:13:30.326Z,16.42
2022-10-23T17:15:33.211Z,16.52
2022-10-23T17:17:36.239Z,16.43
2022-10-23T17:19:46.005Z,16.36
2022-10-23T17:21:49.262Z,16.42
2022-10-23T17:23:53.161Z,16.26
2022-10-23T17:25:56.788Z,16.31
2022-10-23T17:27:59.453Z,16.33
2022-10-23T17:30:02.447Z,16.34
2022-10-23T17:32:05.799Z,16.40
2022-10-23T17:34:12.208Z,16.48
2022-10-23T17:36:16.613Z,16.40
2022-10-23T17:38:20.578Z,16.28
2022-10-23T17:40:25.158Z,16.34
2022-10-23T17:42:29.397Z,16.23
2022-10-23T17:44:32.365Z,16.38
2022-10-23T17:46:35.222Z,16.32
2022-10-23T17:48:44.132Z,16.32
2022-10-23T17:50:46.894Z,16.25
2022-10-23T17:52:49.203Z,16.28
2022-10-23T17:54:52.920Z,16.31
2022-10-23T17:56:58.363Z,16.21
2022-10-23T17:59:05.813Z,16.24
2022-10-23T18:01:16.339Z,16.22
2022-10-23T18:03:20.667Z,16.25
2022-10-23T18:05:24.535Z,16.09
2022-10-23T18:07:27.702Z,16.09
2022-10-23T18:09:31.435Z,16.08
2022-10-23T18:11:37.881Z,16.21
2022-10-23T18:13:40.149Z,16.18
2022-10-23T18:15:45.116Z,16.13
2022-10-23T18:17:47.913Z,16.19
2022-10-23T18:19:52.945Z,16.18
2022-10-23T18:21:56.225Z,16.20
2022-10-23T18:24:02.883Z,16.08
2022-10-23T18:26:06.452Z,16.10
2022-10-23T18:28:09.680Z,16.19
2022-10-23T18:30:13.724Z,16.30
2022-10-23T18:32:16.540Z,16.30
2022-10-23T18:34:24.229Z,16.33
2022-10-23T18:36:29.246Z,16.28
2022-10-23T18:38:32.067Z,16.28
2022-10-23T18:40:35.243Z,16.28
2022-10-23T18:42:38.134Z,16.25
2022-10-23T18:44:41.159Z,16.32
2022-10-23T18:46:45.494Z,16.26
2022-10-23T18:48:50.739Z,16.30
2022-10-23T18:50:53.617Z,16.25
2022-10-23T18:52:57.825Z,16.32
2022-10-23T18:55:00.910Z,16.31
2022-10-23T18:57:08.454Z,16.19
2022-10-23T18:59:15.592Z,16.15
2022-10-23T19:01:19.900Z,16.09
2022-10-23T19:03:22.805Z,16.16
2022-10-23T19:05:25.959Z,16.27
2022-10-23T19:07:28.800Z,16.23
2022-10-23T19:09:33.534Z,16.14
2022-10-23T19:11:37.844Z,16.10
2022-10-23T19:13:43.433Z,15.96
2022-10-23T19:15:46.242Z,16.06
2022-10-23T19:17:55.265Z,16.05
2022-10-23T19:20:06.834Z,16.05
2022-10-23T19:22:13.367Z,16.02
2022-10-23T19:24:26.507Z,16.01
2022-10-23T19:26:31.671Z,15.99
2022-10-23T19:28:40.293Z,15.99
2022-10-23T19:30:43.544Z,15.98
2022-10-23T19:32:47.815Z,15.90
2022-10-23T19:34:50.563Z,15.97
2022-10-23T19:36:56.808Z,15.90
2022-10-23T19:39:00.677Z,16.00
2022-10-23T19:41:04.019Z,16.10
2022-10-23T19:43:07.503Z,16.27
2022-10-23T19:45:15.774Z,16.19
2022-10-23T19:47:18.471Z,16.11
2022-10-23T19:49:24.263Z,16.05
2022-10-23T19:51:30.049Z,16.07
2022-10-23T19:53:32.796Z,16.05
2022-10-23T19:55:35.863Z,16.08
2022-10-23T19:57:38.704Z,15.99
2022-10-23T19:59:41.854Z,16.06
2022-10-23T20:01:48.043Z,16.06
2022-10-23T20:03:52.330Z,15.99
2022-10-23T20:05:54.623Z,15.97
2022-10-23T20:07:57.751Z,16.01
2022-10-23T20:10:01.026Z,15.99
2022-10-23T20:12:04.899Z,16.03
2022-10-23T20:14:08.150Z,16.00
2022-10-23T20:16:21.027Z,16.00
2022-10-23T20:18:23.744Z,15.95
2022-10-23T20:20:26.295Z,15.96
2022-10-23T20:22:29.008Z,15.95
2022-10-23T20:24:31.698Z,16.00
2022-10-23T20:26:34.467Z,15.97
2022-10-23T20:28:37.830Z,15.96
2022-10-23T20:30:42.730Z,15.86
2022-10-23T20:32:45.564Z,15.86
2022-10-23T20:34:48.798Z,15.83
2022-10-23T20:36:52.183Z,15.93
2022-10-23T20:38:58.007Z,15.85
2022-10-23T20:41:05.963Z,15.83
2022-10-23T20:43:08.319Z,15.79
2022-10-23T20:45:11.303Z,15.85
2022-10-23T20:47:14.128Z,15.82
2022-10-23T20:49:17.098Z,15.77
2022-10-23T20:51:21.686Z,15.78
2022-10-23T20:53:24.236Z,15.78
2022-10-23T20:55:26.447Z,15.73
2022-10-23T20:57:28.764Z,15.73
2022-10-23T20:59:31.406Z,15.78
2022-10-23T21:01:34.958Z,15.82
2022-10-23T21:03:38.246Z,15.83
2022-10-23T21:05:40.802Z,15.76
2022-10-23T21:07:43.004Z,15.80
2022-10-23T21:09:45.291Z,15.82
2022-10-23T21:11:47.915Z,15.88
2022-10-23T21:13:51.572Z,15.68
2022-10-23T21:15:54.137Z,15.87
2022-10-23T21:18:01.515Z,15.95
2022-10-23T21:20:11.445Z,15.69
2022-10-23T21:22:13.643Z,15.64
2022-10-23T21:24:17.136Z,15.71
2022-10-23T21:26:21.181Z,15.60
2022-10-23T21:28:23.513Z,15.64
2022-10-23T21:30:25.972Z,15.64
2022-10-23T21:32:28.201Z,15.71
2022-10-23T21:34:30.795Z,15.75
2022-10-23T21:36:39.782Z,15.73
2022-10-23T21:38:52.545Z,15.76
2022-10-23T21:40:55.015Z,15.68
2022-10-23T21:42:57.575Z,15.74
2022-10-23T21:44:59.802Z,15.78
2022-10-23T21:47:02.026Z,15.64
2022-10-23T21:49:04.956Z,15.61
2022-10-23T21:51:11.979Z,15.53
2022-10-23T21:53:14.279Z,15.60
2022-10-23T21:55:16.730Z,15.71
2022-10-23T21:57:19.146Z,15.73
